Aérodrome :
LOGIN :

S'inscrire | Disclaimer

   EN    FR    IT 

 










Légende :    VFR   VFR Marginal   IFR   IFR Intensif   IFR Très Intensif
Visi : 
Plafond : 
>= 8 km
>= 3000ft
5 à 8 km
1000 à 3000 ft
1500m à 5 km
500 à 1000 ft
800 à 1500m
200 à 500 ft
< 800m
< 200 ft
Symboles :   Orages  Brouillard  Fortes neiges  Fortes précipitations  Vent > 20 kt
SIGMETs :   Divers  Orages  Givrage  Turbulence  Onde Orograph.  Cendres Volcan.







- Altitude de l'aérodrome : 1213 ft
- Code IATA : SCQ


LEST - Santiago de Compostela

DERNIER METAR :
  • 222130Z VRB01KT 9999 SCT028 BKN035 17/14 Q1023 NOSIG

METARs EXPIRÉS :
  • 222100Z VRB01KT 9999 SCT026 BKN033 17/14 Q1023 NOSIG
  • 222030Z VRB01KT 9999 SCT024 BKN033 17/14 Q1023 NOSIG
  • 222000Z 35003KT 310V020 9999 FEW025 SCT035 18/14 Q1022 NOSIG
  • 221930Z 02004KT 350V070 9999 FEW025 19/15 Q1022 NOSIG
  • 221900Z 02008KT 350V050 9999 FEW025 19/15 Q1022 NOSIG

TAF TAF LEST
Valide du 22 à 18h jusqu'au 23 à 18h UTC


221700Z 2218/2318 02006KT 9999 SCT030 TX25/2315Z TN16/2305Z
PROB40
TEMPO 2223/2307 BKN010
PROB30
TEMPO 2223/2307 1500 BR BKN005
Pas de NOTAMs connus pour ce terrain.



MET'MAP, la Météo Aéronautique d'un coup d'oeil ! - Copyright ORBIFLY Décembre 2007 - Disclaimer

ORBIFLY MET'MAP TEAM :

Programmation & Développement : Alexandra Zaïnal
Conception & Développement : Baudouin d'Aumeries
Co-Programmation & Développement : Marc-Olivier Méhu
Soutien technique & logistique : Manuel Goepfert

Contact : metmap@orbifly.com




SOURCES & CREDITS :

   NOAA